createdAt,value
2018-02-23T00:00:22.186Z,98274.19
2018-02-23T00:02:49.689Z,98272.91
2018-02-23T00:05:17.135Z,98268.19
2018-02-23T00:07:48.391Z,98266.88
2018-02-23T00:10:15.864Z,98264.33
2018-02-23T00:12:43.317Z,98263.89
2018-02-23T00:15:10.933Z,98264.31
2018-02-23T00:17:38.599Z,98260.45
2018-02-23T00:20:06.120Z,98260.89
2018-02-23T00:22:42.341Z,98262.61
2018-02-23T00:25:10.021Z,98263.48
2018-02-23T00:27:37.490Z,98264.75
2018-02-23T00:30:05.648Z,98271.22
2018-02-23T00:32:40.295Z,98272.91
2018-02-23T00:35:07.964Z,98269.91
2018-02-23T00:37:35.538Z,98266.91
2018-02-23T00:40:03.177Z,98269.48
2018-02-23T00:42:30.732Z,98263.05
2018-02-23T00:44:58.368Z,98265.20
2018-02-23T00:47:25.891Z,98268.62
2018-02-23T00:49:53.522Z,98264.77
2018-02-23T00:52:21.053Z,98262.63
2018-02-23T00:54:48.517Z,98262.20
2018-02-23T00:57:16.101Z,98264.77
2018-02-23T00:59:43.644Z,98266.48
2018-02-23T01:02:11.294Z,98266.92
2018-02-23T01:04:38.822Z,98267.79
2018-02-23T01:07:07.113Z,98264.78
2018-02-23T01:09:34.717Z,98255.78
2018-02-23T01:12:02.372Z,98257.90
2018-02-23T01:14:29.902Z,98256.63
2018-02-23T01:16:57.534Z,98261.36
2018-02-23T01:19:25.070Z,98257.07
2018-02-23T01:21:52.946Z,98250.61
2018-02-23T01:24:20.395Z,98245.47
2018-02-23T01:26:47.875Z,98240.34
2018-02-23T01:29:15.334Z,98237.73
2018-02-23T01:31:42.828Z,98239.03
2018-02-23T01:34:10.283Z,98231.33
2018-02-23T01:36:37.740Z,98239.03
2018-02-23T01:39:05.214Z,98244.62
2018-02-23T01:41:32.670Z,98243.77
2018-02-23T01:44:00.151Z,98235.19
2018-02-23T01:46:27.612Z,98244.61
2018-02-23T01:48:55.067Z,98236.46
2018-02-23T01:51:22.538Z,98237.74
2018-02-23T01:53:49.992Z,98242.47
2018-02-23T01:56:17.442Z,98235.63
2018-02-23T01:58:44.893Z,98234.32
2018-02-23T02:01:12.444Z,98232.17
2018-02-23T02:03:39.923Z,98227.91
2018-02-23T02:06:07.391Z,98228.77
2018-02-23T02:08:34.955Z,98223.62
2018-02-23T02:11:02.414Z,98221.45
2018-02-23T02:13:29.893Z,98223.20
2018-02-23T02:15:57.358Z,98221.47
2018-02-23T02:18:24.850Z,98216.73
2018-02-23T02:20:52.326Z,98216.75
2018-02-23T02:23:19.783Z,98211.19
2018-02-23T02:25:47.251Z,98214.18
2018-02-23T02:28:14.743Z,98217.17
2018-02-23T02:30:42.234Z,98207.33
2018-02-23T02:33:09.689Z,98209.89
2018-02-23T02:35:37.139Z,98200.44
2018-02-23T02:38:04.618Z,98204.31
2018-02-23T02:40:32.113Z,98203.88
2018-02-23T02:42:59.583Z,98204.31
2018-02-23T02:45:27.065Z,98205.17
2018-02-23T02:47:54.507Z,98206.02
2018-02-23T02:50:21.964Z,98202.16
2018-02-23T02:52:49.447Z,98209.45
2018-02-23T02:55:16.901Z,98206.89
2018-02-23T02:57:44.677Z,98200.03
2018-02-23T03:00:12.232Z,98198.29
2018-02-23T03:02:40.217Z,98200.02
2018-02-23T03:05:08.293Z,98204.73
2018-02-23T03:07:36.332Z,98200.86
2018-02-23T03:10:03.926Z,98206.00
2018-02-23T03:12:32.049Z,98202.16
2018-02-23T03:14:59.616Z,98201.70
2018-02-23T03:17:27.546Z,98203.44
2018-02-23T03:19:55.116Z,98206.00
2018-02-23T03:22:23.140Z,98206.42
2018-02-23T03:24:51.176Z,98206.84
2018-02-23T03:27:19.241Z,98207.73
2018-02-23T03:29:47.254Z,98206.44
2018-02-23T03:32:14.802Z,98210.70
2018-02-23T03:34:42.479Z,98210.27
2018-02-23T03:37:10.205Z,98201.69
2018-02-23T03:39:37.751Z,98201.70
2018-02-23T03:42:06.316Z,98204.70
2018-02-23T03:44:34.287Z,98212.40
2018-02-23T03:47:01.729Z,98209.82
2018-02-23T03:49:29.286Z,98208.97
2018-02-23T03:51:56.871Z,98210.25
2018-02-23T03:54:24.355Z,98209.81
2018-02-23T03:56:51.873Z,98212.38
2018-02-23T03:59:19.598Z,98207.66
2018-02-23T04:01:47.096Z,98214.08
2018-02-23T04:04:14.570Z,98213.62
2018-02-23T04:06:42.066Z,98217.92
2018-02-23T04:09:09.529Z,98220.97
2018-02-23T04:11:36.980Z,98216.66
2018-02-23T04:14:04.461Z,98219.22
2018-02-23T04:16:31.924Z,98223.92
2018-02-23T04:18:59.523Z,98221.34
2018-02-23T04:21:27.437Z,98226.44
2018-02-23T04:23:55.639Z,98209.33
2018-02-23T04:26:23.606Z,98214.42
2018-02-23T04:28:51.741Z,98218.26
2018-02-23T04:31:19.538Z,98218.71
2018-02-23T04:33:47.843Z,98214.00
2018-02-23T04:36:15.978Z,98212.27
2018-02-23T04:38:43.498Z,98221.70
2018-02-23T04:41:11.394Z,98215.30
2018-02-23T04:43:39.821Z,98217.85
2018-02-23T04:46:07.922Z,98219.55
2018-02-23T04:48:36.010Z,98218.22
2018-02-23T04:51:03.809Z,98223.34
2018-02-23T04:53:32.033Z,98225.06
2018-02-23T04:55:59.978Z,98223.83
2018-02-23T04:58:28.490Z,98225.44
2018-02-23T05:00:57.393Z,98222.89
2018-02-23T05:03:25.911Z,98217.72
2018-02-23T05:05:54.659Z,98213.84
2018-02-23T05:08:23.859Z,98221.13
2018-02-23T05:10:52.148Z,98219.81
2018-02-23T05:13:20.055Z,98221.08
2018-02-23T05:15:47.535Z,98219.75
2018-02-23T05:18:15.548Z,98225.70
2018-02-23T05:20:43.345Z,98225.20
2018-02-23T05:23:12.910Z,98222.60
2018-02-23T05:25:41.339Z,98226.39
2018-02-23T05:28:09.359Z,98228.52
2018-02-23T05:30:36.847Z,98224.20
2018-02-23T05:33:04.814Z,98222.80
2018-02-23T05:35:32.445Z,98225.28
2018-02-23T05:38:00.544Z,98233.71
2018-02-23T05:40:28.315Z,98229.33
2018-02-23T05:42:56.022Z,98224.13
2018-02-23T05:45:23.704Z,98231.31
2018-02-23T05:47:52.409Z,98231.66
2018-02-23T05:50:20.513Z,98231.62
2018-02-23T05:52:48.910Z,98228.55
2018-02-23T05:55:16.689Z,98226.34
2018-02-23T05:57:44.465Z,98227.98
2018-02-23T06:00:13.278Z,98226.26
2018-02-23T06:02:41.366Z,98236.88
2018-02-23T06:05:09.477Z,98236.81
2018-02-23T06:07:38.225Z,98246.14
2018-02-23T06:10:06.227Z,98245.69
2018-02-23T06:12:35.818Z,98243.53
2018-02-23T06:15:03.477Z,98251.99
2018-02-23T06:17:36.740Z,98248.59
2018-02-23T06:20:09.407Z,98247.34
2018-02-23T06:22:37.215Z,98252.46
2018-02-23T06:25:04.865Z,98259.73
2018-02-23T06:27:32.915Z,98258.42
2018-02-23T06:30:00.902Z,98254.61
2018-02-23T06:32:28.713Z,98254.23
2018-02-23T06:34:56.451Z,98256.73
2018-02-23T06:37:24.439Z,98260.22
2018-02-23T06:39:51.966Z,98263.21
2018-02-23T06:42:19.478Z,98255.99
2018-02-23T06:44:48.214Z,98265.42
2018-02-23T06:47:15.882Z,98264.57
2018-02-23T06:49:44.015Z,98262.87
2018-02-23T06:52:12.138Z,98256.94
2018-02-23T06:54:40.120Z,98262.87
2018-02-23T06:57:08.340Z,98265.44
2018-02-23T06:59:36.322Z,98266.75
2018-02-23T07:02:04.905Z,98269.84
2018-02-23T07:04:32.907Z,98272.14
2018-02-23T07:07:00.641Z,98273.59
2018-02-23T07:09:28.449Z,98265.73
2018-02-23T07:11:56.542Z,98264.22
2018-02-23T07:14:25.414Z,98268.12
2018-02-23T07:16:53.498Z,98267.82
2018-02-23T07:19:21.879Z,98264.82
2018-02-23T07:21:49.949Z,98265.29
2018-02-23T07:24:18.217Z,98262.49
2018-02-23T07:26:46.896Z,98264.27
2018-02-23T07:29:14.624Z,98265.12
2018-02-23T07:31:42.512Z,98260.48
2018-02-23T07:34:10.655Z,98265.59
2018-02-23T07:36:38.856Z,98263.58
2018-02-23T07:39:06.798Z,98266.13
2018-02-23T07:41:34.459Z,98260.11
2018-02-23T07:44:02.238Z,98252.81
2018-02-23T07:46:30.772Z,98250.73
2018-02-23T07:48:59.801Z,98247.84
2018-02-23T07:51:28.110Z,98253.44
2018-02-23T07:53:55.583Z,98265.02
2018-02-23T07:56:23.062Z,98269.30
2018-02-23T07:58:50.537Z,98269.33
2018-02-23T08:01:18.024Z,98270.19
2018-02-23T08:03:45.487Z,98282.59
2018-02-23T08:06:12.972Z,98292.13
2018-02-23T08:08:43.332Z,98286.09
2018-02-23T08:11:13.055Z,98293.42
2018-02-23T08:13:40.514Z,98292.14
2018-02-23T08:16:07.963Z,98284.08
2018-02-23T08:18:35.443Z,98297.77
2018-02-23T08:21:02.955Z,98297.38
2018-02-23T08:23:30.406Z,98296.95
2018-02-23T08:25:57.983Z,98291.36
2018-02-23T08:28:25.440Z,98292.23
2018-02-23T08:30:52.927Z,98297.83
2018-02-23T08:33:20.414Z,98287.52
2018-02-23T08:35:47.859Z,98293.11
2018-02-23T08:38:15.312Z,98301.27
2018-02-23T08:40:42.773Z,98296.09
2018-02-23T08:43:10.231Z,98287.95
2018-02-23T08:45:37.689Z,98288.37
2018-02-23T08:48:05.154Z,98284.50
2018-02-23T08:50:32.624Z,98287.09
2018-02-23T08:53:00.117Z,98288.39
2018-02-23T08:55:27.569Z,98290.08
2018-02-23T08:57:55.024Z,98291.36
2018-02-23T09:00:29.011Z,98298.64
2018-02-23T09:02:56.465Z,98302.52
2018-02-23T09:05:24.441Z,98299.09
2018-02-23T09:07:53.077Z,98291.80
2018-02-23T09:10:20.525Z,98299.06
2018-02-23T09:12:48.056Z,98295.22
2018-02-23T09:15:15.534Z,98289.61
2018-02-23T09:17:42.997Z,98295.98
2018-02-23T09:20:10.475Z,98299.48
2018-02-23T09:22:37.927Z,98299.50
2018-02-23T09:25:05.400Z,98301.16
2018-02-23T09:27:32.875Z,98305.32
2018-02-23T09:30:00.394Z,98308.80
2018-02-23T09:32:35.552Z,98302.35
2018-02-23T09:35:03.027Z,98302.33
2018-02-23T09:37:30.490Z,98306.60
2018-02-23T09:39:57.967Z,98302.91
2018-02-23T09:42:25.417Z,98301.25
2018-02-23T09:44:52.918Z,98302.95
2018-02-23T09:47:20.377Z,98295.16
2018-02-23T09:49:47.858Z,98293.13
2018-02-23T09:52:15.334Z,98306.48
2018-02-23T09:54:42.769Z,98302.09
2018-02-23T09:57:10.231Z,98311.53
2018-02-23T09:59:37.690Z,98311.41
2018-02-23T10:02:05.152Z,98309.25
2018-02-23T10:04:32.630Z,98308.42
2018-02-23T10:07:00.112Z,98306.72
2018-02-23T10:09:27.575Z,98307.96
2018-02-23T10:11:55.080Z,98300.77
2018-02-23T10:14:22.539Z,98310.49
2018-02-23T10:16:49.990Z,98303.61
2018-02-23T10:19:17.447Z,98306.95
2018-02-23T10:21:44.906Z,98305.83
2018-02-23T10:24:12.381Z,98313.75
2018-02-23T10:26:39.838Z,98310.70
2018-02-23T10:29:07.372Z,98308.60
2018-02-23T10:31:34.857Z,98309.97
2018-02-23T10:34:02.313Z,98311.73
2018-02-23T10:36:29.768Z,98311.09
2018-02-23T10:38:57.266Z,98309.84
2018-02-23T10:41:24.789Z,98317.28
2018-02-23T10:43:53.507Z,98310.54
2018-02-23T10:46:20.965Z,98305.56
2018-02-23T10:48:48.421Z,98310.73
2018-02-23T10:51:15.888Z,98310.16
2018-02-23T10:53:43.379Z,98309.55
2018-02-23T10:56:10.881Z,98304.73
2018-02-23T10:58:38.334Z,98307.33
2018-02-23T11:01:05.804Z,98304.29
2018-02-23T11:03:33.299Z,98305.50
2018-02-23T11:06:00.770Z,98302.30
2018-02-23T11:08:28.283Z,98294.08
2018-02-23T11:10:55.763Z,98303.44
2018-02-23T11:13:23.270Z,98299.61
2018-02-23T11:15:50.732Z,98300.52
2018-02-23T11:18:18.207Z,98297.77
2018-02-23T11:20:45.676Z,98291.69
2018-02-23T11:23:13.505Z,98281.95
2018-02-23T11:25:41.026Z,98276.69
2018-02-23T11:28:08.513Z,98275.79
2018-02-23T11:30:35.981Z,98271.15
2018-02-23T11:33:03.496Z,98276.48
2018-02-23T11:35:30.963Z,98276.08
2018-02-23T11:37:58.442Z,98264.06
2018-02-23T11:40:25.914Z,98261.11
2018-02-23T11:42:53.440Z,98259.43
2018-02-23T11:45:20.914Z,98253.09
2018-02-23T11:47:48.370Z,98254.71
2018-02-23T11:50:15.888Z,98249.81
2018-02-23T11:52:43.985Z,98244.06
2018-02-23T11:55:11.570Z,98240.95
2018-02-23T11:57:45.041Z,98246.39
2018-02-23T12:00:12.549Z,98233.00
2018-02-23T12:02:40.018Z,98241.05
2018-02-23T12:05:07.476Z,98237.16
2018-02-23T12:07:34.940Z,98236.70
2018-02-23T12:10:02.402Z,98235.16
2018-02-23T12:12:29.905Z,98232.19
2018-02-23T12:14:57.383Z,98227.48
2018-02-23T12:17:24.843Z,98220.58
2018-02-23T12:19:52.316Z,98218.36
2018-02-23T12:22:19.765Z,98216.00
2018-02-23T12:24:47.223Z,98221.52
2018-02-23T12:27:14.683Z,98218.89
2018-02-23T12:29:42.156Z,98213.61
2018-02-23T12:32:09.647Z,98221.88
2018-02-23T12:34:37.148Z,98211.34
2018-02-23T12:37:04.623Z,98211.89
2018-02-23T12:39:32.083Z,98214.90
2018-02-23T12:41:59.563Z,98219.12
2018-02-23T12:44:27.040Z,98216.28
2018-02-23T12:46:54.522Z,98212.36
2018-02-23T12:49:22.029Z,98206.36
2018-02-23T12:51:49.552Z,98207.80
2018-02-23T12:54:17.187Z,98198.06
2018-02-23T12:56:44.728Z,98200.27
2018-02-23T12:59:12.219Z,98205.69
2018-02-23T13:01:39.678Z,98197.73
2018-02-23T13:04:07.148Z,98200.34
2018-02-23T13:06:34.664Z,98195.27
2018-02-23T13:09:02.156Z,98200.91
2018-02-23T13:11:29.621Z,98208.41
2018-02-23T13:13:57.094Z,98207.34
2018-02-23T13:16:29.367Z,98196.39
2018-02-23T13:18:56.828Z,98196.24
2018-02-23T13:21:24.289Z,98190.09
2018-02-23T13:23:51.755Z,98196.92
2018-02-23T13:26:19.231Z,98191.23
2018-02-23T13:28:46.696Z,98191.34
2018-02-23T13:31:14.724Z,98191.64
2018-02-23T13:33:43.299Z,98188.52
2018-02-23T13:36:10.798Z,98187.91
2018-02-23T13:38:38.310Z,98185.50
2018-02-23T13:55:30.049Z,98193.38
2018-02-23T13:57:57.653Z,98194.70
2018-02-23T14:00:25.651Z,98194.87
2018-02-23T14:02:55.213Z,98191.23
2018-02-23T14:05:25.525Z,98190.09
2018-02-23T14:08:05.982Z,98187.77
2018-02-23T14:10:33.754Z,98186.19
2018-02-23T14:13:01.328Z,98187.64
2018-02-23T14:15:42.234Z,98194.03
2018-02-23T14:18:09.937Z,98193.06
2018-02-23T14:20:41.392Z,98182.55
2018-02-23T14:23:09.541Z,98187.48
2018-02-23T14:25:37.014Z,98196.86
2018-02-23T14:28:04.484Z,98187.23
2018-02-23T14:30:31.934Z,98192.77
2018-02-23T14:32:59.395Z,98186.34
2018-02-23T14:35:26.884Z,98184.99
2018-02-23T14:46:32.971Z,98185.55
2018-02-23T14:49:12.255Z,98174.48
2018-02-23T14:51:40.030Z,98171.73
2018-02-23T14:54:07.524Z,98170.64
2018-02-23T14:56:34.991Z,98174.80
2018-02-23T14:59:02.443Z,98179.72
2018-02-23T15:01:30.023Z,98181.10
2018-02-23T15:03:57.516Z,98174.02
2018-02-23T15:06:25.078Z,98176.82
2018-02-23T15:08:52.559Z,98169.88
2018-02-23T15:11:20.014Z,98176.24
2018-02-23T15:13:47.475Z,98176.83
2018-02-23T15:16:15.461Z,98178.59
2018-02-23T15:18:44.037Z,98176.59
2018-02-23T15:21:11.499Z,98177.31
2018-02-23T15:23:38.949Z,98173.08
2018-02-23T15:26:06.403Z,98177.13
2018-02-23T15:28:33.907Z,98175.84
2018-02-23T15:31:13.111Z,98172.06
2018-02-23T15:33:40.578Z,98172.86
2018-02-23T15:36:08.021Z,98179.33
2018-02-23T15:38:35.976Z,98181.45
2018-02-23T15:41:03.786Z,98177.31
2018-02-23T15:43:31.255Z,98186.98
2018-02-23T15:45:58.714Z,98183.10
2018-02-23T15:51:33.852Z,98186.48
2018-02-23T15:54:01.299Z,98188.38
2018-02-23T15:56:28.770Z,98182.34
2018-02-23T15:58:56.239Z,98178.03
2018-02-23T16:01:23.854Z,98169.86
2018-02-23T16:03:51.307Z,98165.16
2018-02-23T16:06:18.759Z,98177.78
2018-02-23T16:08:46.236Z,98185.54
2018-02-23T16:11:13.693Z,98182.55
2018-02-23T16:13:41.146Z,98184.25
2018-02-23T16:16:08.601Z,98180.48
2018-02-23T16:18:36.068Z,98186.00
2018-02-23T16:21:03.650Z,98186.26
2018-02-23T16:23:31.096Z,98190.56
2018-02-23T16:25:58.547Z,98189.65
2018-02-23T16:28:26.018Z,98194.44
2018-02-23T16:30:53.466Z,98188.87
2018-02-23T16:33:20.918Z,98189.89
2018-02-23T16:35:48.358Z,98195.89
2018-02-23T16:38:15.849Z,98201.55
2018-02-23T16:40:43.295Z,98200.81
2018-02-23T16:43:10.754Z,98203.39
2018-02-23T16:45:38.224Z,98207.66
2018-02-23T16:48:05.683Z,98206.36
2018-02-23T16:50:33.154Z,98207.20
2018-02-23T16:53:01.194Z,98205.91
2018-02-23T16:55:28.635Z,98206.80
2018-02-23T16:57:56.208Z,98207.60
2018-02-23T17:00:23.673Z,98204.18
2018-02-23T17:02:51.175Z,98210.29
2018-02-23T17:05:18.740Z,98211.13
2018-02-23T17:07:46.194Z,98217.17
2018-02-23T17:10:13.650Z,98227.55
2018-02-23T17:12:41.141Z,98229.28
2018-02-23T17:15:08.900Z,98229.30
2018-02-23T17:17:36.680Z,98240.09
2018-02-23T17:20:08.079Z,98242.22
2018-02-23T17:22:41.746Z,98240.05
2018-02-23T17:25:09.333Z,98244.83
2018-02-23T17:27:36.858Z,98245.73
2018-02-23T17:30:04.749Z,98239.17
2018-02-23T17:32:32.225Z,98237.52
2018-02-23T17:34:59.677Z,98242.77
2018-02-23T17:37:27.162Z,98243.15
2018-02-23T17:39:54.634Z,98246.20
2018-02-23T17:42:22.091Z,98253.11
2018-02-23T17:44:49.564Z,98246.59
2018-02-23T17:47:17.063Z,98244.50
2018-02-23T17:49:44.527Z,98235.02
2018-02-23T17:52:11.988Z,98237.16
2018-02-23T17:54:39.442Z,98242.82
2018-02-23T17:57:06.878Z,98238.95
2018-02-23T17:59:34.362Z,98243.69
2018-02-23T18:02:01.808Z,98245.78
2018-02-23T18:04:29.259Z,98243.21
2018-02-23T18:06:57.209Z,98244.48
2018-02-23T18:09:24.674Z,98241.09
2018-02-23T18:11:52.143Z,98241.94
2018-02-23T18:14:19.597Z,98246.67
2018-02-23T18:16:47.058Z,98243.73
2018-02-23T18:19:14.555Z,98254.11
2018-02-23T18:21:42.017Z,98243.36
2018-02-23T18:24:09.485Z,98251.10
2018-02-23T18:26:36.954Z,98250.22
2018-02-23T18:29:04.425Z,98249.42
2018-02-23T18:31:31.867Z,98248.55
2018-02-23T18:33:59.313Z,98244.25
2018-02-23T18:36:26.774Z,98247.31
2018-02-23T18:38:54.277Z,98245.19
2018-02-23T18:41:22.118Z,98258.16
2018-02-23T18:43:49.646Z,98258.16
2018-02-23T18:46:17.107Z,98259.90
2018-02-23T18:48:44.619Z,98264.67
2018-02-23T18:51:12.130Z,98267.27
2018-02-23T18:53:39.622Z,98261.69
2018-02-23T18:56:07.107Z,98263.41
2018-02-23T18:58:34.611Z,98264.70
2018-02-23T19:01:02.162Z,98261.71
2018-02-23T19:03:29.614Z,98262.14
2018-02-23T19:11:42.886Z,98250.52
2018-02-23T19:14:10.372Z,98253.53
2018-02-23T19:16:37.974Z,98256.98
2018-02-23T19:19:05.510Z,98247.92
2018-02-23T19:21:33.108Z,98252.66
2018-02-23T19:24:00.758Z,98243.27
2018-02-23T19:26:28.241Z,98246.64
2018-02-23T19:28:55.685Z,98244.54
2018-02-23T19:31:23.139Z,98245.01
2018-02-23T19:33:50.596Z,98244.58
2018-02-23T19:36:18.276Z,98245.48
2018-02-23T19:38:45.841Z,98252.40
2018-02-23T19:41:13.383Z,98259.72
2018-02-23T19:43:40.902Z,98268.27
2018-02-23T19:46:08.365Z,98268.30
2018-02-23T19:48:35.947Z,98273.44
2018-02-23T19:51:03.385Z,98271.73
2018-02-23T19:53:30.903Z,98269.53
2018-02-23T19:55:58.385Z,98265.67
2018-02-23T19:58:25.833Z,98263.92
2018-02-23T20:00:53.305Z,98266.05
2018-02-23T20:03:20.799Z,98265.63
2018-02-23T20:05:48.242Z,98276.33
2018-02-23T20:08:15.759Z,98278.95
2018-02-23T20:10:43.174Z,98273.35
2018-02-23T20:13:10.626Z,98279.81
2018-02-23T20:15:38.106Z,98281.56
2018-02-23T20:18:05.568Z,98281.98
2018-02-23T20:20:33.207Z,98294.02
2018-02-23T20:23:00.671Z,98289.30
2018-02-23T20:25:28.135Z,98295.75
2018-02-23T20:27:55.595Z,98300.48
2018-02-23T20:30:23.049Z,98300.03
2018-02-23T20:32:50.502Z,98299.20
2018-02-23T20:35:18.031Z,98298.78
2018-02-23T20:37:45.489Z,98306.09
2018-02-23T20:40:12.929Z,98305.23
2018-02-23T20:42:40.386Z,98307.83
2018-02-23T20:45:07.825Z,98309.56
2018-02-23T20:47:35.311Z,98303.14
2018-02-23T20:50:02.770Z,98304.44
2018-02-23T20:52:30.220Z,98302.25
2018-02-23T20:54:57.674Z,98295.79
2018-02-23T20:57:25.135Z,98293.22
2018-02-23T20:59:52.616Z,98294.52
2018-02-23T21:02:20.067Z,98291.98
2018-02-23T21:04:47.507Z,98293.72
2018-02-23T21:07:15.067Z,98297.58
2018-02-23T21:09:42.576Z,98296.30
2018-02-23T21:12:10.116Z,98294.16
2018-02-23T21:14:37.559Z,98297.58
2018-02-23T21:17:05.004Z,98300.61
2018-02-23T21:19:32.490Z,98298.44
2018-02-23T21:21:59.936Z,98300.59
2018-02-23T21:24:27.375Z,98302.76
2018-02-23T21:26:54.849Z,98305.77
2018-02-23T21:29:22.293Z,98310.50
2018-02-23T21:31:49.902Z,98304.85
2018-02-23T21:34:17.383Z,98301.88
2018-02-23T21:36:44.867Z,98301.89
2018-02-23T21:39:12.326Z,98306.23
2018-02-23T21:41:51.664Z,98302.78
2018-02-23T21:44:19.119Z,98300.23
2018-02-23T21:46:46.670Z,98301.08
2018-02-23T21:49:14.224Z,98298.92
2018-02-23T21:51:41.717Z,98307.56
2018-02-23T21:54:09.177Z,98302.84
2018-02-23T21:56:36.652Z,98305.83
2018-02-23T21:59:04.524Z,98304.98
2018-02-23T22:01:31.974Z,98304.58
2018-02-23T22:03:59.567Z,98312.72
2018-02-23T22:06:27.035Z,98304.56
2018-02-23T22:08:54.523Z,98299.81
2018-02-23T22:11:21.986Z,98307.10
2018-02-23T22:13:49.449Z,98304.11
2018-02-23T22:16:16.910Z,98307.11
2018-02-23T22:18:44.364Z,98309.29
2018-02-23T22:21:11.835Z,98310.17
2018-02-23T22:23:39.423Z,98314.02
2018-02-23T22:26:06.882Z,98313.16
2018-02-23T22:28:34.371Z,98308.88
2018-02-23T22:31:01.859Z,98314.47
2018-02-23T22:33:29.336Z,98306.32
2018-02-23T22:35:56.832Z,98307.21
2018-02-23T22:38:24.404Z,98308.92
2018-02-23T22:40:51.898Z,98309.80
2018-02-23T22:43:19.358Z,98319.23
2018-02-23T22:45:46.802Z,98314.09
2018-02-23T22:48:14.415Z,98320.53
2018-02-23T22:50:42.766Z,98316.67
2018-02-23T22:53:12.489Z,98314.06
2018-02-23T22:55:41.574Z,98317.95
2018-02-23T22:58:10.126Z,98314.95
2018-02-23T23:00:43.154Z,98317.54
2018-02-23T23:03:19.178Z,98321.80
2018-02-23T23:05:51.628Z,98315.81
2018-02-23T23:08:20.358Z,98315.39
2018-02-23T23:10:48.948Z,98318.41
2018-02-23T23:13:19.296Z,98317.95
2018-02-23T23:15:46.900Z,98320.98
2018-02-23T23:18:16.830Z,98320.11
2018-02-23T23:20:45.317Z,98320.55
2018-02-23T23:23:12.766Z,98315.41
2018-02-23T23:25:40.313Z,98320.97
2018-02-23T23:28:08.012Z,98321.41
2018-02-23T23:30:35.550Z,98312.39
2018-02-23T23:33:03.076Z,98320.98
2018-02-23T23:35:31.598Z,98308.95
2018-02-23T23:37:59.161Z,98309.38
2018-02-23T23:40:26.895Z,98316.69
2018-02-23T23:42:54.354Z,98320.56
2018-02-23T23:45:21.842Z,98325.70
2018-02-23T23:47:49.323Z,98323.56
2018-02-23T23:50:16.763Z,98329.16
2018-02-23T23:52:44.226Z,98319.28
2018-02-23T23:55:11.735Z,98324.84
2018-02-23T23:57:40.547Z,98333.44
